sensor_id;sensor_type;location;lat;lon;timestamp;P1;durP1;ratioP1;P2;durP2;ratioP2
67344;SDS011;54230;52.402;6.276;2023-05-07T00:00:00;13.7;;;9.3;;
67344;SDS011;54230;52.402;6.276;2023-05-07T00:05:00;13.4;;;9.8;;
67344;SDS011;54230;52.402;6.276;2023-05-07T00:10:00;15.3;;;10.6;;
67344;SDS011;54230;52.402;6.276;2023-05-07T00:15:00;17.5;;;11.8;;
67344;SDS011;54230;52.402;6.276;2023-05-07T00:20:00;17.3;;;11.5;;
67344;SDS011;54230;52.402;6.276;2023-05-07T00:25:00;14.6;;;10.6;;
67344;SDS011;54230;52.402;6.276;2023-05-07T00:30:00;16.4;;;11.8;;
67344;SDS011;54230;52.402;6.276;2023-05-07T00:35:00;15.2;;;11.3;;
67344;SDS011;54230;52.402;6.276;2023-05-07T00:40:00;16.5;;;11.5;;
67344;SDS011;54230;52.402;6.276;2023-05-07T00:45:00;16.4;;;12.4;;
67344;SDS011;54230;52.402;6.276;2023-05-07T00:50:00;17.8;;;11.6;;
67344;SDS011;54230;52.402;6.276;2023-05-07T00:55:00;17.4;;;13.3;;
67344;SDS011;54230;52.402;6.276;2023-05-07T01:00:00;18.5;;;13.6;;
67344;SDS011;54230;52.402;6.276;2023-05-07T01:05:00;20.2;;;13.8;;
67344;SDS011;54230;52.402;6.276;2023-05-07T01:10:00;22.1;;;15.7;;
67344;SDS011;54230;52.402;6.276;2023-05-07T01:15:00;23.7;;;17.8;;
67344;SDS011;54230;52.402;6.276;2023-05-07T01:20:00;25.9;;;18.8;;
67344;SDS011;54230;52.402;6.276;2023-05-07T01:25:00;27.7;;;19.8;;
67344;SDS011;54230;52.402;6.276;2023-05-07T01:30:00;26.8;;;18.7;;
67344;SDS011;54230;52.402;6.276;2023-05-07T01:35:00;28.6;;;20.1;;
67344;SDS011;54230;52.402;6.276;2023-05-07T01:40:00;29.9;;;20.9;;
67344;SDS011;54230;52.402;6.276;2023-05-07T01:45:00;31.3;;;21.2;;
67344;SDS011;54230;52.402;6.276;2023-05-07T01:50:00;33.4;;;22.7;;
67344;SDS011;54230;52.402;6.276;2023-05-07T01:55:00;33.1;;;22.8;;
67344;SDS011;54230;52.402;6.276;2023-05-07T02:00:00;33.9;;;22.5;;
67344;SDS011;54230;52.402;6.276;2023-05-07T02:05:00;34.5;;;22.6;;
67344;SDS011;54230;52.402;6.276;2023-05-07T02:10:00;31.0;;;21.0;;
67344;SDS011;54230;52.402;6.276;2023-05-07T02:15:00;31.2;;;21.1;;
67344;SDS011;54230;52.402;6.276;2023-05-07T02:20:00;32.5;;;21.0;;
67344;SDS011;54230;52.402;6.276;2023-05-07T02:25:00;28.4;;;19.4;;
67344;SDS011;54230;52.402;6.276;2023-05-07T02:30:00;29.8;;;20.4;;
67344;SDS011;54230;52.402;6.276;2023-05-07T02:35:00;31.1;;;20.5;;
67344;SDS011;54230;52.402;6.276;2023-05-07T02:40:00;24.7;;;17.6;;
67344;SDS011;54230;52.402;6.276;2023-05-07T02:45:00;26.7;;;17.8;;
67344;SDS011;54230;52.402;6.276;2023-05-07T02:50:00;25.6;;;16.4;;
67344;SDS011;54230;52.402;6.276;2023-05-07T02:55:00;24.3;;;15.7;;
67344;SDS011;54230;52.402;6.276;2023-05-07T03:00:06;24.6;;;15.6;;
67344;SDS011;54230;52.402;6.276;2023-05-07T03:05:00;24.6;;;16.2;;
67344;SDS011;54230;52.402;6.276;2023-05-07T03:10:00;25.4;;;15.5;;
67344;SDS011;54230;52.402;6.276;2023-05-07T03:15:00;26.7;;;16.6;;
67344;SDS011;54230;52.402;6.276;2023-05-07T03:20:00;28.1;;;16.7;;
67344;SDS011;54230;52.402;6.276;2023-05-07T03:25:00;26.6;;;16.8;;
67344;SDS011;54230;52.402;6.276;2023-05-07T03:30:00;28.2;;;17.4;;
67344;SDS011;54230;52.402;6.276;2023-05-07T03:35:00;27.2;;;17.1;;
67344;SDS011;54230;52.402;6.276;2023-05-07T03:40:00;29.5;;;17.7;;
67344;SDS011;54230;52.402;6.276;2023-05-07T03:45:00;31.8;;;18.1;;
67344;SDS011;54230;52.402;6.276;2023-05-07T03:50:00;29.4;;;17.5;;
67344;SDS011;54230;52.402;6.276;2023-05-07T03:55:00;28.2;;;17.5;;
67344;SDS011;54230;52.402;6.276;2023-05-07T04:00:00;30.9;;;19.1;;
67344;SDS011;54230;52.402;6.276;2023-05-07T04:05:00;30.7;;;18.6;;
67344;SDS011;54230;52.402;6.276;2023-05-07T04:10:00;30.4;;;18.6;;
67344;SDS011;54230;52.402;6.276;2023-05-07T04:15:00;32.9;;;19.3;;
67344;SDS011;54230;52.402;6.276;2023-05-07T04:20:00;31.2;;;19.1;;
67344;SDS011;54230;52.402;6.276;2023-05-07T04:25:00;31.2;;;18.8;;
67344;SDS011;54230;52.402;6.276;2023-05-07T04:30:00;31.6;;;18.9;;
67344;SDS011;54230;52.402;6.276;2023-05-07T04:35:00;30.7;;;17.8;;
67344;SDS011;54230;52.402;6.276;2023-05-07T04:40:00;31.1;;;18.8;;
67344;SDS011;54230;52.402;6.276;2023-05-07T04:45:00;30.8;;;19.2;;
67344;SDS011;54230;52.402;6.276;2023-05-07T04:50:00;33.1;;;19.6;;
67344;SDS011;54230;52.402;6.276;2023-05-07T04:55:00;32.9;;;18.9;;
67344;SDS011;54230;52.402;6.276;2023-05-07T05:00:00;32.7;;;20.2;;
67344;SDS011;54230;52.402;6.276;2023-05-07T05:05:00;31.6;;;19.4;;
67344;SDS011;54230;52.402;6.276;2023-05-07T05:10:01;32.0;;;19.3;;
67344;SDS011;54230;52.402;6.276;2023-05-07T05:15:00;35.0;;;19.8;;
67344;SDS011;54230;52.402;6.276;2023-05-07T05:20:00;33.7;;;20.5;;
67344;SDS011;54230;52.402;6.276;2023-05-07T05:25:00;31.7;;;18.9;;
67344;SDS011;54230;52.402;6.276;2023-05-07T05:30:00;32.9;;;19.9;;
67344;SDS011;54230;52.402;6.276;2023-05-07T05:35:00;33.6;;;19.4;;
67344;SDS011;54230;52.402;6.276;2023-05-07T05:40:00;33.5;;;19.6;;
67344;SDS011;54230;52.402;6.276;2023-05-07T05:45:00;34.9;;;20.3;;
67344;SDS011;54230;52.402;6.276;2023-05-07T05:50:00;34.2;;;20.4;;
67344;SDS011;54230;52.402;6.276;2023-05-07T05:55:00;37.7;;;21.1;;
67344;SDS011;54230;52.402;6.276;2023-05-07T06:00:00;34.4;;;20.7;;
67344;SDS011;54230;52.402;6.276;2023-05-07T06:05:00;36.4;;;21.6;;
67344;SDS011;54230;52.402;6.276;2023-05-07T06:10:00;33.8;;;20.1;;
67344;SDS011;54230;52.402;6.276;2023-05-07T06:15:00;36.6;;;21.0;;
67344;SDS011;54230;52.402;6.276;2023-05-07T06:20:00;36.9;;;21.9;;
67344;SDS011;54230;52.402;6.276;2023-05-07T06:25:00;36.4;;;21.4;;
67344;SDS011;54230;52.402;6.276;2023-05-07T06:30:00;37.2;;;21.9;;
67344;SDS011;54230;52.402;6.276;2023-05-07T06:35:00;35.7;;;20.8;;
67344;SDS011;54230;52.402;6.276;2023-05-07T06:40:00;35.9;;;21.3;;
67344;SDS011;54230;52.402;6.276;2023-05-07T06:45:00;35.2;;;20.9;;
67344;SDS011;54230;52.402;6.276;2023-05-07T06:50:00;37.8;;;21.9;;
67344;SDS011;54230;52.402;6.276;2023-05-07T06:55:00;36.5;;;20.9;;
67344;SDS011;54230;52.402;6.276;2023-05-07T07:00:00;35.7;;;21.3;;
67344;SDS011;54230;52.402;6.276;2023-05-07T07:05:00;35.8;;;20.6;;
67344;SDS011;54230;52.402;6.276;2023-05-07T07:10:00;38.3;;;21.7;;
67344;SDS011;54230;52.402;6.276;2023-05-07T07:15:00;30.6;;;19.1;;
67344;SDS011;54230;52.402;6.276;2023-05-07T07:20:00;33.1;;;19.8;;
67344;SDS011;54230;52.402;6.276;2023-05-07T07:25:00;36.3;;;22.0;;
67344;SDS011;54230;52.402;6.276;2023-05-07T07:30:00;31.9;;;19.4;;
67344;SDS011;54230;52.402;6.276;2023-05-07T07:35:00;29.6;;;18.4;;
67344;SDS011;54230;52.402;6.276;2023-05-07T07:40:00;28.6;;;19.1;;
67344;SDS011;54230;52.402;6.276;2023-05-07T07:45:00;26.1;;;16.5;;
67344;SDS011;54230;52.402;6.276;2023-05-07T07:50:00;27.9;;;17.3;;
67344;SDS011;54230;52.402;6.276;2023-05-07T07:55:00;28.4;;;17.8;;
67344;SDS011;54230;52.402;6.276;2023-05-07T08:00:00;24.2;;;15.4;;
67344;SDS011;54230;52.402;6.276;2023-05-07T08:05:00;25.5;;;16.5;;
67344;SDS011;54230;52.402;6.276;2023-05-07T08:10:00;30.9;;;19.4;;
67344;SDS011;54230;52.402;6.276;2023-05-07T08:15:00;31.0;;;19.9;;
67344;SDS011;54230;52.402;6.276;2023-05-07T08:20:00;33.2;;;19.9;;
67344;SDS011;54230;52.402;6.276;2023-05-07T08:25:00;36.0;;;20.9;;
67344;SDS011;54230;52.402;6.276;2023-05-07T08:30:00;37.2;;;21.3;;
67344;SDS011;54230;52.402;6.276;2023-05-07T08:35:00;33.6;;;20.8;;
67344;SDS011;54230;52.402;6.276;2023-05-07T08:40:00;31.8;;;20.3;;
67344;SDS011;54230;52.402;6.276;2023-05-07T08:45:00;32.2;;;19.8;;
67344;SDS011;54230;52.402;6.276;2023-05-07T08:50:00;32.3;;;19.8;;
67344;SDS011;54230;52.402;6.276;2023-05-07T08:55:01;31.9;;;19.6;;
67344;SDS011;54230;52.402;6.276;2023-05-07T09:00:00;31.5;;;19.9;;
67344;SDS011;54230;52.402;6.276;2023-05-07T09:05:00;33.2;;;21.0;;
67344;SDS011;54230;52.402;6.276;2023-05-07T09:10:01;31.3;;;20.3;;
67344;SDS011;54230;52.402;6.276;2023-05-07T09:15:00;31.2;;;20.2;;
67344;SDS011;54230;52.402;6.276;2023-05-07T09:20:02;32.8;;;19.9;;
67344;SDS011;54230;52.402;6.276;2023-05-07T09:25:00;30.7;;;20.1;;
67344;SDS011;54230;52.402;6.276;2023-05-07T09:30:02;30.0;;;18.6;;
67344;SDS011;54230;52.402;6.276;2023-05-07T09:35:00;30.8;;;20.0;;
67344;SDS011;54230;52.402;6.276;2023-05-07T09:40:00;28.5;;;18.7;;
67344;SDS011;54230;52.402;6.276;2023-05-07T09:45:00;26.2;;;17.4;;
67344;SDS011;54230;52.402;6.276;2023-05-07T09:50:00;29.0;;;18.7;;
67344;SDS011;54230;52.402;6.276;2023-05-07T09:55:00;28.1;;;18.4;;
67344;SDS011;54230;52.402;6.276;2023-05-07T10:00:01;28.1;;;18.5;;
67344;SDS011;54230;52.402;6.276;2023-05-07T10:05:00;31.6;;;19.8;;
67344;SDS011;54230;52.402;6.276;2023-05-07T10:10:00;28.4;;;18.2;;
67344;SDS011;54230;52.402;6.276;2023-05-07T10:15:00;29.0;;;19.0;;
67344;SDS011;54230;52.402;6.276;2023-05-07T10:20:00;29.3;;;18.9;;
67344;SDS011;54230;52.402;6.276;2023-05-07T10:25:00;29.1;;;19.0;;
67344;SDS011;54230;52.402;6.276;2023-05-07T10:30:03;28.2;;;18.1;;
67344;SDS011;54230;52.402;6.276;2023-05-07T10:35:02;29.6;;;18.0;;
67344;SDS011;54230;52.402;6.276;2023-05-07T10:40:00;26.2;;;17.8;;
67344;SDS011;54230;52.402;6.276;2023-05-07T11:00:00;22.8;;;14.9;;
67344;SDS011;54230;52.402;6.276;2023-05-07T11:10:01;26.7;;;19.1;;
67344;SDS011;54230;52.402;6.276;2023-05-07T11:15:00;27.3;;;17.8;;
67344;SDS011;54230;52.402;6.276;2023-05-07T11:20:00;21.8;;;15.2;;
67344;SDS011;54230;52.402;6.276;2023-05-07T11:25:01;23.3;;;15.7;;
67344;SDS011;54230;52.402;6.276;2023-05-07T11:30:00;26.1;;;17.1;;
67344;SDS011;54230;52.402;6.276;2023-05-07T11:35:00;24.6;;;16.8;;
67344;SDS011;54230;52.402;6.276;2023-05-07T11:40:02;24.8;;;16.0;;
67344;SDS011;54230;52.402;6.276;2023-05-07T11:45:00;23.5;;;15.9;;
67344;SDS011;54230;52.402;6.276;2023-05-07T11:50:02;23.5;;;16.6;;
67344;SDS011;54230;52.402;6.276;2023-05-07T11:55:01;26.1;;;17.5;;
67344;SDS011;54230;52.402;6.276;2023-05-07T12:00:00;25.2;;;17.2;;
67344;SDS011;54230;52.402;6.276;2023-05-07T12:05:00;24.7;;;17.3;;
67344;SDS011;54230;52.402;6.276;2023-05-07T12:10:03;25.0;;;17.0;;
67344;SDS011;54230;52.402;6.276;2023-05-07T12:15:00;23.3;;;16.5;;
67344;SDS011;54230;52.402;6.276;2023-05-07T12:20:00;24.7;;;16.0;;
67344;SDS011;54230;52.402;6.276;2023-05-07T12:25:00;23.6;;;16.8;;
67344;SDS011;54230;52.402;6.276;2023-05-07T12:30:00;25.1;;;17.4;;
67344;SDS011;54230;52.402;6.276;2023-05-07T12:35:00;26.3;;;18.8;;
67344;SDS011;54230;52.402;6.276;2023-05-07T12:40:03;25.1;;;17.6;;
67344;SDS011;54230;52.402;6.276;2023-05-07T12:45:00;25.1;;;17.0;;
67344;SDS011;54230;52.402;6.276;2023-05-07T12:50:00;24.1;;;16.3;;
67344;SDS011;54230;52.402;6.276;2023-05-07T12:55:04;22.8;;;15.7;;
67344;SDS011;54230;52.402;6.276;2023-05-07T13:00:00;22.2;;;15.6;;
67344;SDS011;54230;52.402;6.276;2023-05-07T13:05:00;25.2;;;16.8;;
67344;SDS011;54230;52.402;6.276;2023-05-07T13:10:00;25.3;;;17.4;;
67344;SDS011;54230;52.402;6.276;2023-05-07T13:15:00;25.8;;;17.2;;
67344;SDS011;54230;52.402;6.276;2023-05-07T13:20:00;26.0;;;17.1;;
67344;SDS011;54230;52.402;6.276;2023-05-07T13:25:00;24.0;;;16.4;;
67344;SDS011;54230;52.402;6.276;2023-05-07T13:30:00;24.1;;;16.8;;
67344;SDS011;54230;52.402;6.276;2023-05-07T13:35:00;23.3;;;16.0;;
67344;SDS011;54230;52.402;6.276;2023-05-07T13:40:00;22.2;;;16.2;;
67344;SDS011;54230;52.402;6.276;2023-05-07T13:45:00;23.5;;;16.0;;
67344;SDS011;54230;52.402;6.276;2023-05-07T13:50:00;25.2;;;16.8;;
67344;SDS011;54230;52.402;6.276;2023-05-07T13:55:00;22.9;;;16.8;;
67344;SDS011;54230;52.402;6.276;2023-05-07T14:00:00;23.9;;;16.6;;
67344;SDS011;54230;52.402;6.276;2023-05-07T14:05:00;22.6;;;16.5;;
67344;SDS011;54230;52.402;6.276;2023-05-07T14:10:00;23.8;;;16.6;;
67344;SDS011;54230;52.402;6.276;2023-05-07T14:15:00;23.7;;;16.4;;
67344;SDS011;54230;52.402;6.276;2023-05-07T14:20:00;22.9;;;16.7;;
67344;SDS011;54230;52.402;6.276;2023-05-07T14:25:00;22.4;;;15.8;;
67344;SDS011;54230;52.402;6.276;2023-05-07T14:30:00;22.9;;;16.0;;
67344;SDS011;54230;52.402;6.276;2023-05-07T14:35:00;22.9;;;15.4;;
67344;SDS011;54230;52.402;6.276;2023-05-07T14:40:00;21.9;;;15.8;;
67344;SDS011;54230;52.402;6.276;2023-05-07T14:45:00;21.6;;;15.9;;
67344;SDS011;54230;52.402;6.276;2023-05-07T14:50:00;19.9;;;14.8;;
67344;SDS011;54230;52.402;6.276;2023-05-07T14:55:00;22.7;;;15.5;;
67344;SDS011;54230;52.402;6.276;2023-05-07T15:00:00;19.4;;;14.5;;
67344;SDS011;54230;52.402;6.276;2023-05-07T15:05:00;20.3;;;14.8;;
67344;SDS011;54230;52.402;6.276;2023-05-07T15:10:00;20.6;;;14.7;;
67344;SDS011;54230;52.402;6.276;2023-05-07T15:15:00;21.7;;;14.6;;
67344;SDS011;54230;52.402;6.276;2023-05-07T15:20:00;21.6;;;14.8;;
67344;SDS011;54230;52.402;6.276;2023-05-07T15:25:00;19.4;;;14.3;;
67344;SDS011;54230;52.402;6.276;2023-05-07T15:30:00;19.6;;;13.9;;
67344;SDS011;54230;52.402;6.276;2023-05-07T15:35:00;19.6;;;13.4;;
67344;SDS011;54230;52.402;6.276;2023-05-07T15:40:00;20.0;;;13.7;;
67344;SDS011;54230;52.402;6.276;2023-05-07T15:45:00;20.6;;;13.7;;
67344;SDS011;54230;52.402;6.276;2023-05-07T15:50:00;20.8;;;13.8;;
67344;SDS011;54230;52.402;6.276;2023-05-07T15:55:00;24.1;;;14.4;;
67344;SDS011;54230;52.402;6.276;2023-05-07T16:00:00;20.7;;;14.0;;
67344;SDS011;54230;52.402;6.276;2023-05-07T16:05:00;19.5;;;13.7;;
67344;SDS011;54230;52.402;6.276;2023-05-07T16:10:00;19.9;;;13.6;;
67344;SDS011;54230;52.402;6.276;2023-05-07T16:15:00;19.0;;;13.2;;
67344;SDS011;54230;52.402;6.276;2023-05-07T16:20:01;18.8;;;13.1;;
67344;SDS011;54230;52.402;6.276;2023-05-07T16:25:00;20.4;;;13.4;;
67344;SDS011;54230;52.402;6.276;2023-05-07T16:30:00;18.5;;;13.1;;
67344;SDS011;54230;52.402;6.276;2023-05-07T16:35:00;18.9;;;13.6;;
67344;SDS011;54230;52.402;6.276;2023-05-07T16:40:00;19.2;;;13.3;;
67344;SDS011;54230;52.402;6.276;2023-05-07T16:45:00;18.8;;;12.9;;
67344;SDS011;54230;52.402;6.276;2023-05-07T16:50:00;18.9;;;13.2;;
67344;SDS011;54230;52.402;6.276;2023-05-07T16:55:00;19.9;;;13.4;;
67344;SDS011;54230;52.402;6.276;2023-05-07T17:00:00;17.6;;;11.8;;
67344;SDS011;54230;52.402;6.276;2023-05-07T17:05:00;17.6;;;12.3;;
67344;SDS011;54230;52.402;6.276;2023-05-07T17:10:00;18.1;;;12.1;;
67344;SDS011;54230;52.402;6.276;2023-05-07T17:15:00;16.8;;;11.0;;
67344;SDS011;54230;52.402;6.276;2023-05-07T17:20:00;18.3;;;12.0;;
67344;SDS011;54230;52.402;6.276;2023-05-07T17:25:00;16.0;;;11.4;;
67344;SDS011;54230;52.402;6.276;2023-05-07T17:30:00;13.8;;;9.3;;
67344;SDS011;54230;52.402;6.276;2023-05-07T17:35:00;13.0;;;8.8;;
67344;SDS011;54230;52.402;6.276;2023-05-07T17:40:00;18.1;;;11.7;;
67344;SDS011;54230;52.402;6.276;2023-05-07T17:45:00;15.7;;;11.2;;
67344;SDS011;54230;52.402;6.276;2023-05-07T17:50:00;15.8;;;11.1;;
67344;SDS011;54230;52.402;6.276;2023-05-07T17:55:00;16.0;;;11.1;;
67344;SDS011;54230;52.402;6.276;2023-05-07T18:00:00;14.9;;;10.5;;
67344;SDS011;54230;52.402;6.276;2023-05-07T18:05:00;16.3;;;11.5;;
67344;SDS011;54230;52.402;6.276;2023-05-07T18:10:00;15.3;;;11.1;;
67344;SDS011;54230;52.402;6.276;2023-05-07T18:15:00;16.3;;;11.1;;
67344;SDS011;54230;52.402;6.276;2023-05-07T18:20:00;17.3;;;11.5;;
67344;SDS011;54230;52.402;6.276;2023-05-07T18:25:00;15.9;;;11.2;;
67344;SDS011;54230;52.402;6.276;2023-05-07T18:30:00;16.7;;;11.1;;
67344;SDS011;54230;52.402;6.276;2023-05-07T18:35:00;16.3;;;11.0;;
67344;SDS011;54230;52.402;6.276;2023-05-07T18:40:00;17.4;;;10.5;;
67344;SDS011;54230;52.402;6.276;2023-05-07T18:45:00;17.0;;;11.3;;
67344;SDS011;54230;52.402;6.276;2023-05-07T18:50:00;16.3;;;11.4;;
67344;SDS011;54230;52.402;6.276;2023-05-07T18:55:00;17.0;;;11.6;;
67344;SDS011;54230;52.402;6.276;2023-05-07T19:00:00;16.8;;;11.2;;
67344;SDS011;54230;52.402;6.276;2023-05-07T19:05:00;17.4;;;11.6;;
67344;SDS011;54230;52.402;6.276;2023-05-07T19:10:00;15.2;;;10.9;;
67344;SDS011;54230;52.402;6.276;2023-05-07T19:15:00;16.0;;;11.4;;
67344;SDS011;54230;52.402;6.276;2023-05-07T19:20:00;17.4;;;11.2;;
67344;SDS011;54230;52.402;6.276;2023-05-07T19:25:00;16.0;;;11.4;;
67344;SDS011;54230;52.402;6.276;2023-05-07T19:30:00;16.8;;;11.5;;
67344;SDS011;54230;52.402;6.276;2023-05-07T19:35:00;18.5;;;11.6;;
67344;SDS011;54230;52.402;6.276;2023-05-07T19:40:00;15.8;;;11.1;;
67344;SDS011;54230;52.402;6.276;2023-05-07T19:45:00;16.4;;;11.5;;
67344;SDS011;54230;52.402;6.276;2023-05-07T19:50:00;16.8;;;11.5;;
67344;SDS011;54230;52.402;6.276;2023-05-07T19:55:00;16.1;;;11.6;;
67344;SDS011;54230;52.402;6.276;2023-05-07T20:00:00;17.3;;;12.0;;
67344;SDS011;54230;52.402;6.276;2023-05-07T20:05:00;18.0;;;12.2;;
67344;SDS011;54230;52.402;6.276;2023-05-07T20:10:00;18.5;;;12.7;;
67344;SDS011;54230;52.402;6.276;2023-05-07T20:15:00;19.2;;;12.6;;
67344;SDS011;54230;52.402;6.276;2023-05-07T20:20:00;19.2;;;13.3;;
67344;SDS011;54230;52.402;6.276;2023-05-07T20:25:00;19.3;;;13.0;;
67344;SDS011;54230;52.402;6.276;2023-05-07T20:30:00;19.5;;;13.6;;
67344;SDS011;54230;52.402;6.276;2023-05-07T20:35:00;18.1;;;13.2;;
67344;SDS011;54230;52.402;6.276;2023-05-07T20:40:00;18.0;;;12.9;;
67344;SDS011;54230;52.402;6.276;2023-05-07T20:45:00;19.7;;;14.1;;
67344;SDS011;54230;52.402;6.276;2023-05-07T20:50:00;20.1;;;13.9;;
67344;SDS011;54230;52.402;6.276;2023-05-07T20:55:00;20.3;;;14.1;;
67344;SDS011;54230;52.402;6.276;2023-05-07T21:00:00;21.2;;;13.4;;
67344;SDS011;54230;52.402;6.276;2023-05-07T21:05:00;19.9;;;14.1;;
67344;SDS011;54230;52.402;6.276;2023-05-07T21:10:00;18.6;;;13.7;;
67344;SDS011;54230;52.402;6.276;2023-05-07T21:15:00;20.2;;;13.8;;
67344;SDS011;54230;52.402;6.276;2023-05-07T21:20:00;20.8;;;14.5;;
67344;SDS011;54230;52.402;6.276;2023-05-07T21:25:00;19.7;;;14.1;;
67344;SDS011;54230;52.402;6.276;2023-05-07T21:30:00;19.4;;;14.4;;
67344;SDS011;54230;52.402;6.276;2023-05-07T21:35:00;20.7;;;13.7;;
67344;SDS011;54230;52.402;6.276;2023-05-07T21:40:00;21.2;;;14.3;;
67344;SDS011;54230;52.402;6.276;2023-05-07T21:45:00;18.2;;;13.2;;
67344;SDS011;54230;52.402;6.276;2023-05-07T21:50:00;19.1;;;13.7;;
67344;SDS011;54230;52.402;6.276;2023-05-07T21:55:00;18.4;;;13.2;;
67344;SDS011;54230;52.402;6.276;2023-05-07T22:00:00;18.9;;;13.0;;
67344;SDS011;54230;52.402;6.276;2023-05-07T22:05:00;17.4;;;13.2;;
67344;SDS011;54230;52.402;6.276;2023-05-07T22:10:00;19.2;;;14.1;;
67344;SDS011;54230;52.402;6.276;2023-05-07T22:15:00;18.1;;;13.9;;
67344;SDS011;54230;52.402;6.276;2023-05-07T22:20:00;18.8;;;14.3;;
67344;SDS011;54230;52.402;6.276;2023-05-07T22:25:00;20.2;;;13.5;;
67344;SDS011;54230;52.402;6.276;2023-05-07T22:30:00;20.9;;;14.4;;
67344;SDS011;54230;52.402;6.276;2023-05-07T22:35:00;19.5;;;14.1;;
67344;SDS011;54230;52.402;6.276;2023-05-07T22:40:00;19.0;;;14.4;;
67344;SDS011;54230;52.402;6.276;2023-05-07T22:45:00;20.2;;;14.7;;
67344;SDS011;54230;52.402;6.276;2023-05-07T22:50:00;19.8;;;15.3;;
67344;SDS011;54230;52.402;6.276;2023-05-07T22:55:00;22.3;;;15.6;;
67344;SDS011;54230;52.402;6.276;2023-05-07T23:00:00;21.2;;;15.0;;
67344;SDS011;54230;52.402;6.276;2023-05-07T23:05:00;21.6;;;15.5;;
67344;SDS011;54230;52.402;6.276;2023-05-07T23:10:00;20.9;;;15.3;;
67344;SDS011;54230;52.402;6.276;2023-05-07T23:15:00;24.2;;;16.2;;
67344;SDS011;54230;52.402;6.276;2023-05-07T23:20:00;20.7;;;15.8;;
67344;SDS011;54230;52.402;6.276;2023-05-07T23:25:00;21.7;;;15.8;;
67344;SDS011;54230;52.402;6.276;2023-05-07T23:30:00;22.7;;;15.8;;
67344;SDS011;54230;52.402;6.276;2023-05-07T23:35:00;22.1;;;15.3;;
67344;SDS011;54230;52.402;6.276;2023-05-07T23:40:00;22.4;;;16.3;;
67344;SDS011;54230;52.402;6.276;2023-05-07T23:45:00;20.9;;;15.5;;
67344;SDS011;54230;52.402;6.276;2023-05-07T23:50:00;22.3;;;16.4;;
67344;SDS011;54230;52.402;6.276;2023-05-07T23:55:00;22.1;;;15.8;;
